Time;durP1;ratioP1;P1;durP2;ratioP2;P2;SDS_P1;SDS_P2;PMS_P1;PMS_P2;Temp;Humidity;BMP_temperature;BMP_pressure;BME280_temperature;BME280_humidity;BME280_pressure;Samples;Min_cycle;Max_cycle;Signal;HPM_P1;HPM_P2
2024/01/14 00:01:58;;;;;;;80.22;35.70;;;0.80;70.00;;;;;;4979757;28;20356;-65
2024/01/14 00:04:24;;;;;;;77.70;37.10;;;0.70;70.00;;;;;;4980048;28;20041;-68
2024/01/14 00:06:51;;;;;;;74.75;35.85;;;0.70;69.90;;;;;;4979658;28;20449;-68
2024/01/14 00:09:17;;;;;;;81.75;36.80;;;0.70;70.20;;;;;;4979919;28;20167;-68
2024/01/14 00:11:43;;;;;;;72.15;34.13;;;0.70;70.50;;;;;;4979575;28;20041;-66
2024/01/14 00:14:09;;;;;;;83.72;37.83;;;0.70;70.30;;;;;;4980125;28;20081;-67
2024/01/14 00:16:36;;;;;;;73.45;33.47;;;0.60;70.50;;;;;;4979804;28;20039;-67
2024/01/14 00:19:05;;;;;;;77.60;35.53;;;0.60;70.50;;;;;;4979516;28;20366;-70
2024/01/14 00:21:32;;;;;;;73.90;36.45;;;0.60;70.30;;;;;;4979642;28;20023;-70
2024/01/14 00:23:58;;;;;;;84.97;37.60;;;0.50;70.20;;;;;;4979658;28;20330;-67
2024/01/14 00:26:27;;;;;;;75.78;37.17;;;0.50;70.20;;;;;;4979336;28;20074;-65
2024/01/14 00:28:54;;;;;;;74.93;37.28;;;0.50;70.30;;;;;;4979314;28;20078;-69
2024/01/14 00:31:20;;;;;;;82.90;38.92;;;0.50;70.80;;;;;;4979505;28;20378;-68
2024/01/14 00:33:46;;;;;;;78.43;38.30;;;0.50;70.40;;;;;;4979310;28;20163;-69
2024/01/14 00:36:12;;;;;;;79.10;36.03;;;0.50;70.30;;;;;;4979718;28;20027;-68
2024/01/14 00:38:38;;;;;;;75.97;37.70;;;0.50;70.20;;;;;;4979698;28;20058;-66
2024/01/14 00:41:04;;;;;;;74.47;36.92;;;0.50;70.60;;;;;;4979670;28;20023;-69
2024/01/14 00:43:31;;;;;;;72.35;36.03;;;0.40;70.40;;;;;;4977950;28;20484;-66
2024/01/14 00:45:56;;;;;;;79.25;37.05;;;0.40;70.50;;;;;;4978952;28;20445;-69
2024/01/14 00:48:22;;;;;;;71.93;37.13;;;0.50;70.50;;;;;;4979259;28;20030;-70
2024/01/14 00:50:48;;;;;;;71.03;32.83;;;0.40;70.90;;;;;;4979419;28;20031;-68
2024/01/14 00:53:14;;;;;;;76.93;37.00;;;0.40;70.60;;;;;;4978888;28;20073;-70
2024/01/14 00:55:40;;;;;;;80.28;38.33;;;0.40;70.80;;;;;;4978900;28;20019;-65
2024/01/14 00:58:06;;;;;;;84.30;40.08;;;0.40;70.50;;;;;;4979381;28;20333;-69
2024/01/14 01:00:32;;;;;;;86.47;38.60;;;0.40;70.70;;;;;;4978808;28;20348;-66
2024/01/14 01:02:58;;;;;;;79.18;39.20;;;0.40;70.90;;;;;;4978730;28;20027;-68
2024/01/14 01:05:24;;;;;;;81.70;37.10;;;0.40;70.90;;;;;;4978270;28;20023;-69
2024/01/14 01:07:50;;;;;;;70.05;34.72;;;0.40;70.60;;;;;;4978847;28;20038;-67
2024/01/14 01:10:16;;;;;;;75.43;36.80;;;0.40;70.50;;;;;;4978857;28;20334;-69
2024/01/14 01:12:42;;;;;;;72.20;35.25;;;0.40;70.50;;;;;;4978507;28;20348;-69
2024/01/14 01:15:09;;;;;;;78.32;39.53;;;0.40;70.50;;;;;;4978802;28;20023;-64
2024/01/14 01:17:35;;;;;;;79.15;40.40;;;0.40;70.70;;;;;;4978986;28;20105;-67
2024/01/14 01:20:01;;;;;;;73.88;36.53;;;0.40;70.70;;;;;;4978691;28;20413;-70
2024/01/14 01:22:27;;;;;;;76.05;36.33;;;0.40;70.40;;;;;;4978580;28;20023;-66
2024/01/14 01:24:53;;;;;;;76.13;36.35;;;0.40;70.30;;;;;;4978887;28;20409;-69
2024/01/14 01:27:19;;;;;;;74.85;37.35;;;0.30;70.80;;;;;;4978284;28;20117;-68
2024/01/14 01:29:46;;;;;;;72.35;33.85;;;0.30;70.60;;;;;;4978310;28;20023;-69
2024/01/14 01:32:12;;;;;;;64.53;33.63;;;0.30;71.10;;;;;;4978409;28;20065;-64
2024/01/14 01:34:38;;;;;;;85.43;38.90;;;0.30;71.00;;;;;;4978693;28;20341;-66
2024/01/14 01:37:04;;;;;;;62.72;32.45;;;0.20;71.20;;;;;;4978161;28;20453;-65
2024/01/14 01:39:31;;;;;;;67.57;33.50;;;0.20;71.20;;;;;;4978139;28;20057;-71
2024/01/14 01:41:57;;;;;;;71.93;34.90;;;0.20;71.10;;;;;;4977963;28;20039;-64
2024/01/14 01:44:25;;;;;;;72.40;35.80;;;0.10;71.00;;;;;;4978271;28;20363;-64
2024/01/14 01:46:51;;;;;;;72.60;36.42;;;0.20;71.20;;;;;;4978120;28;20081;-70
2024/01/14 01:49:18;;;;;;;65.60;31.50;;;0.20;71.10;;;;;;4978424;28;20121;-68
2024/01/14 01:51:48;;;;;;;63.40;34.17;;;0.20;70.90;;;;;;4978204;28;20057;-66
2024/01/14 01:54:20;;;;;;;62.13;33.75;;;0.20;71.00;;;;;;4978292;28;20054;-67
2024/01/14 01:56:46;;;;;;;75.70;36.30;;;0.10;70.90;;;;;;4977663;28;20474;-68
2024/01/14 01:59:13;;;;;;;74.82;37.20;;;0.10;71.20;;;;;;4977705;28;20037;-65
2024/01/14 02:01:39;;;;;;;71.57;34.53;;;0.10;71.60;;;;;;4977609;28;20098;-67
2024/01/14 02:04:10;;;;;;;74.88;35.40;;;0.10;71.40;;;;;;4977873;28;20034;-69
2024/01/14 02:06:38;;;;;;;68.65;32.85;;;0.10;71.20;;;;;;4977791;28;20440;-64
2024/01/14 02:09:07;;;;;;;58.83;31.38;;;0.10;71.10;;;;;;4977403;28;20030;-70
2024/01/14 02:11:36;;;;;;;67.80;34.08;;;0.10;71.20;;;;;;4977346;28;20026;-66
2024/01/14 02:14:03;;;;;;;69.57;36.13;;;0.10;71.10;;;;;;4977389;28;20030;-65
2024/01/14 02:16:30;;;;;;;72.10;33.15;;;0.10;71.30;;;;;;4977100;28;20050;-69
2024/01/14 02:18:56;;;;;;;67.57;32.85;;;0.10;71.40;;;;;;4977320;28;20110;-66
2024/01/14 02:21:55;;;;;;;63.70;33.35;;;0.10;71.00;;;;;;4977243;28;20078;-66
2024/01/14 02:24:29;;;;;;;63.22;33.65;;;0.10;71.00;;;;;;4975513;28;20047;-64
2024/01/14 02:26:55;;;;;;;66.78;31.15;;;0.10;70.90;;;;;;4977062;28;20033;-66
2024/01/14 02:29:22;;;;;;;63.33;29.80;;;0.10;70.90;;;;;;4977173;28;20027;-66
2024/01/14 02:31:48;;;;;;;63.38;31.13;;;0.10;70.70;;;;;;4977292;28;20464;-65
2024/01/14 02:34:14;;;;;;;59.17;29.40;;;0.10;70.80;;;;;;4977079;28;20023;-69
2024/01/14 02:36:40;;;;;;;64.05;29.67;;;0.00;70.80;;;;;;4977052;28;20074;-68
2024/01/14 02:39:07;;;;;;;63.10;30.70;;;0.00;70.90;;;;;;4977243;28;20031;-68
2024/01/14 02:41:33;;;;;;;67.53;30.77;;;0.00;71.10;;;;;;4976009;28;20349;-66
2024/01/14 02:43:59;;;;;;;55.40;27.27;;;0.00;70.90;;;;;;4977437;28;20050;-68
2024/01/14 02:46:26;;;;;;;57.58;28.35;;;0.00;70.80;;;;;;4977310;28;20034;-69
2024/01/14 02:48:52;;;;;;;61.08;28.50;;;0.00;71.00;;;;;;4976801;28;20031;-70
2024/01/14 02:51:18;;;;;;;60.92;29.50;;;0.00;70.90;;;;;;4976733;28;20038;-69
2024/01/14 02:53:44;;;;;;;55.80;28.45;;;0.00;71.10;;;;;;4976751;28;20038;-70
2024/01/14 02:56:11;;;;;;;61.50;29.58;;;0.00;71.00;;;;;;4975758;28;20079;-69
2024/01/14 02:58:37;;;;;;;52.95;26.80;;;0.00;71.20;;;;;;4976705;28;20077;-69
2024/01/14 03:01:03;;;;;;;62.83;28.17;;;0.00;71.10;;;;;;4976612;28;20031;-68
2024/01/14 03:03:29;;;;;;;61.55;29.25;;;0.00;71.20;;;;;;4976535;28;20045;-70
2024/01/14 03:05:55;;;;;;;58.50;30.02;;;0.00;70.90;;;;;;4976772;28;20031;-68
2024/01/14 03:08:21;;;;;;;62.65;29.63;;;0.00;70.90;;;;;;4977040;28;20023;-66
2024/01/14 03:10:47;;;;;;;59.40;30.58;;;0.00;70.90;;;;;;4976533;28;20030;-70
2024/01/14 03:13:15;;;;;;;63.75;31.02;;;0.00;71.00;;;;;;4976694;28;20022;-68
2024/01/14 03:15:42;;;;;;;62.65;30.50;;;0.00;70.90;;;;;;4976697;28;20031;-70
2024/01/14 03:18:08;;;;;;;55.47;29.73;;;0.00;71.10;;;;;;4976452;28;20090;-65
2024/01/14 03:20:34;;;;;;;62.47;30.67;;;0.00;70.90;;;;;;4976709;28;20460;-71
2024/01/14 03:23:00;;;;;;;51.58;29.00;;;0.00;70.90;;;;;;4976386;28;20027;-70
2024/01/14 03:25:26;;;;;;;58.65;29.42;;;0.00;70.80;;;;;;4976917;28;20042;-70
2024/01/14 03:27:52;;;;;;;61.03;29.83;;;-0.10;71.00;;;;;;4976941;28;20353;-66
2024/01/14 03:30:18;;;;;;;54.00;26.40;;;-0.10;71.00;;;;;;4982821;28;20030;-65
2024/01/14 03:32:44;;;;;;;55.33;29.45;;;-0.10;71.00;;;;;;4982918;28;20033;-66
2024/01/14 03:35:10;;;;;;;64.22;31.65;;;-0.10;70.90;;;;;;4982983;28;20023;-69
2024/01/14 03:37:36;;;;;;;58.72;30.35;;;-0.10;71.00;;;;;;4982712;28;20030;-66
2024/01/14 03:40:03;;;;;;;62.38;30.95;;;-0.10;70.80;;;;;;4982687;28;20023;-66
2024/01/14 03:42:29;;;;;;;57.83;31.60;;;-0.10;71.50;;;;;;4982530;28;20055;-70
2024/01/14 03:44:56;;;;;;;62.92;31.30;;;-0.10;71.20;;;;;;4982677;28;20422;-64
2024/01/14 03:47:22;;;;;;;60.72;29.75;;;-0.10;71.50;;;;;;4982788;28;20043;-68
2024/01/14 03:49:48;;;;;;;64.75;32.50;;;-0.10;71.60;;;;;;4982612;28;20504;-64
2024/01/14 03:52:14;;;;;;;64.28;31.73;;;-0.10;72.00;;;;;;4982496;28;20464;-70
2024/01/14 03:54:39;;;;;;;61.13;31.05;;;-0.20;71.90;;;;;;4983292;28;20038;-67
2024/01/14 03:57:05;;;;;;;56.05;29.83;;;-0.20;72.20;;;;;;4982580;28;20069;-68
2024/01/14 03:59:31;;;;;;;63.70;31.42;;;-0.20;71.60;;;;;;4983049;28;20029;-68
2024/01/14 04:01:58;;;;;;;60.58;29.95;;;-0.20;71.70;;;;;;4982751;28;20442;-68
2024/01/14 04:04:23;;;;;;;58.47;29.27;;;-0.20;71.60;;;;;;4983034;28;20106;-67
2024/01/14 04:06:49;;;;;;;59.55;29.27;;;-0.30;71.30;;;;;;4982383;28;20126;-68
2024/01/14 04:09:15;;;;;;;59.75;30.25;;;-0.30;71.60;;;;;;4982691;28;20021;-70
2024/01/14 04:11:41;;;;;;;59.78;29.25;;;-0.30;71.60;;;;;;4983099;28;20421;-65
2024/01/14 04:14:07;;;;;;;53.72;27.23;;;-0.30;71.50;;;;;;4982657;28;20023;-68
2024/01/14 04:16:40;;;;;;;63.42;30.65;;;-0.40;71.80;;;;;;4982866;28;20031;-68
2024/01/14 04:19:06;;;;;;;56.75;28.67;;;-0.30;71.60;;;;;;4982634;28;20034;-70
2024/01/14 04:21:33;;;;;;;51.83;26.92;;;-0.40;71.40;;;;;;4982562;28;20083;-68
2024/01/14 04:23:59;;;;;;;56.25;27.45;;;-0.40;71.40;;;;;;4982326;28;20058;-69
2024/01/14 04:26:26;;;;;;;55.22;26.85;;;-0.40;71.50;;;;;;4982259;28;20023;-63
2024/01/14 04:28:52;;;;;;;55.30;26.27;;;-0.30;71.50;;;;;;4982786;28;20015;-68
2024/01/14 04:31:19;;;;;;;50.78;27.33;;;-0.30;71.50;;;;;;4982412;28;20105;-68
2024/01/14 04:33:46;;;;;;;55.40;28.17;;;-0.30;71.40;;;;;;4982216;28;20453;-67
2024/01/14 04:36:11;;;;;;;50.83;26.50;;;-0.30;72.00;;;;;;4982170;28;20033;-68
2024/01/14 04:38:37;;;;;;;62.60;29.15;;;-0.30;71.70;;;;;;4982463;28;20097;-70
2024/01/14 04:41:04;;;;;;;62.63;28.67;;;-0.30;71.70;;;;;;4979008;28;20027;-69
2024/01/14 04:43:30;;;;;;;56.53;28.67;;;-0.30;72.00;;;;;;4978804;28;20432;-68
2024/01/14 04:45:56;;;;;;;59.88;27.77;;;-0.30;71.90;;;;;;4979223;28;20027;-67
2024/01/14 04:48:21;;;;;;;58.58;27.90;;;-0.30;72.10;;;;;;4978049;28;20356;-68
2024/01/14 04:50:47;;;;;;;61.80;29.63;;;-0.30;72.00;;;;;;4979241;28;20422;-69
2024/01/14 04:53:13;;;;;;;59.80;26.85;;;-0.30;72.20;;;;;;4978923;28;20030;-67
2024/01/14 04:55:39;;;;;;;58.63;29.13;;;-0.30;71.90;;;;;;4978930;28;20054;-69
2024/01/14 04:58:05;;;;;;;49.95;23.60;;;-0.30;72.10;;;;;;4979411;28;20393;-67
2024/01/14 05:00:31;;;;;;;53.42;27.33;;;-0.30;71.90;;;;;;4979092;28;20492;-69
2024/01/14 05:02:57;;;;;;;50.85;26.33;;;-0.30;71.90;;;;;;4978769;28;20451;-64
2024/01/14 05:05:23;;;;;;;56.58;27.58;;;-0.30;71.90;;;;;;4978740;28;20107;-70
2024/01/14 05:07:49;;;;;;;51.10;26.02;;;-0.30;72.10;;;;;;4978657;28;20031;-65
2024/01/14 05:10:15;;;;;;;55.15;26.88;;;-0.30;72.00;;;;;;4978669;28;20325;-70
2024/01/14 05:12:41;;;;;;;60.05;26.77;;;-0.40;72.10;;;;;;4979053;28;20022;-66
2024/01/14 05:15:07;;;;;;;58.38;26.45;;;-0.30;71.90;;;;;;4979087;28;20033;-65
2024/01/14 05:17:33;;;;;;;55.70;28.20;;;-0.30;71.90;;;;;;4978445;28;20031;-67
2024/01/14 05:20:00;;;;;;;50.47;25.13;;;-0.30;72.20;;;;;;4978762;28;20038;-67
2024/01/14 05:22:26;;;;;;;54.22;26.05;;;-0.30;72.20;;;;;;4978884;28;20027;-68
2024/01/14 05:24:52;;;;;;;48.47;25.55;;;-0.30;72.50;;;;;;4978379;28;20033;-66
2024/01/14 05:27:18;;;;;;;57.45;26.20;;;-0.30;72.30;;;;;;4978283;28;20023;-66
2024/01/14 05:29:44;;;;;;;53.45;25.85;;;-0.30;72.00;;;;;;4978310;28;20022;-65
2024/01/14 05:32:15;;;;;;;54.35;25.33;;;-0.30;72.00;;;;;;4978179;28;20346;-68
2024/01/14 05:34:45;;;;;;;48.60;25.08;;;-0.30;72.30;;;;;;4978525;28;20023;-70
2024/01/14 05:37:11;;;;;;;54.08;25.48;;;-0.30;72.60;;;;;;4978393;28;20074;-69
2024/01/14 05:39:37;;;;;;;50.67;22.60;;;-0.20;72.10;;;;;;4978153;28;20038;-71
2024/01/14 05:42:04;;;;;;;47.35;23.77;;;-0.20;72.00;;;;;;4978015;28;20043;-71
2024/01/14 05:44:31;;;;;;;53.58;25.13;;;-0.20;71.90;;;;;;4978320;28;20058;-70
2024/01/14 05:46:57;;;;;;;43.83;21.00;;;-0.20;71.90;;;;;;4978651;28;20057;-68
2024/01/14 05:49:23;;;;;;;51.28;26.10;;;-0.20;71.70;;;;;;4977958;28;20073;-69
2024/01/14 05:51:49;;;;;;;47.95;22.60;;;-0.20;71.90;;;;;;4976628;28;20022;-65
2024/01/14 05:54:16;;;;;;;47.78;23.58;;;-0.20;71.70;;;;;;4977831;28;20026;-70
2024/01/14 05:56:42;;;;;;;44.45;23.17;;;-0.30;72.00;;;;;;4978046;28;20050;-70
2024/01/14 05:59:08;;;;;;;41.03;22.13;;;-0.30;72.30;;;;;;4977758;28;20149;-69
2024/01/14 06:01:34;;;;;;;44.00;22.73;;;-0.30;72.20;;;;;;4978133;28;20039;-67
2024/01/14 06:04:00;;;;;;;53.13;23.15;;;-0.30;72.20;;;;;;4977688;28;20027;-68
2024/01/14 06:06:26;;;;;;;42.70;20.73;;;-0.40;72.20;;;;;;4978060;28;20027;-66
2024/01/14 06:08:52;;;;;;;43.15;21.00;;;-0.40;72.00;;;;;;4977585;28;20019;-65
2024/01/14 06:11:18;;;;;;;48.65;21.73;;;-0.40;72.00;;;;;;4977466;28;20154;-65
2024/01/14 06:13:44;;;;;;;43.55;22.48;;;-0.30;72.10;;;;;;4977512;28;20030;-65
2024/01/14 06:16:10;;;;;;;46.05;23.38;;;-0.30;72.40;;;;;;4977444;28;20030;-68
2024/01/14 06:18:39;;;;;;;42.95;22.25;;;-0.30;72.60;;;;;;4977637;28;20097;-69
2024/01/14 06:21:05;;;;;;;44.88;20.90;;;-0.30;72.60;;;;;;4977339;28;20445;-66
2024/01/14 06:23:31;;;;;;;42.28;19.30;;;-0.30;72.30;;;;;;4977200;28;20023;-65
2024/01/14 06:25:56;;;;;;;39.90;20.00;;;-0.40;72.10;;;;;;4977453;28;20330;-66
2024/01/14 06:28:22;;;;;;;41.35;20.00;;;-0.30;72.10;;;;;;5237616;23;20061;-66
2024/01/14 06:30:48;;;;;;;38.88;19.85;;;-0.30;72.10;;;;;;4996614;28;20101;-66
2024/01/14 06:33:14;;;;;;;39.83;20.38;;;-0.40;72.50;;;;;;4996568;28;20396;-66
2024/01/14 06:35:41;;;;;;;41.80;21.15;;;-0.30;72.20;;;;;;4996803;28;20026;-69
2024/01/14 06:38:09;;;;;;;39.83;19.67;;;-0.30;72.20;;;;;;4996398;28;20033;-68
2024/01/14 06:40:35;;;;;;;41.08;20.63;;;-0.30;72.10;;;;;;4996479;28;20061;-72
2024/01/14 06:43:01;;;;;;;43.20;20.15;;;-0.30;72.30;;;;;;4996430;28;20029;-70
2024/01/14 06:45:27;;;;;;;45.97;21.67;;;-0.30;72.20;;;;;;4996355;28;20022;-71
2024/01/14 06:47:53;;;;;;;39.55;19.67;;;-0.30;72.20;;;;;;4996412;28;20312;-72
2024/01/14 06:50:19;;;;;;;41.00;19.60;;;-0.30;72.30;;;;;;4996257;28;20444;-68
2024/01/14 06:52:46;;;;;;;37.30;19.83;;;-0.30;72.10;;;;;;4996777;28;20041;-65
2024/01/14 06:55:13;;;;;;;38.88;19.67;;;-0.30;71.80;;;;;;4996219;28;20333;-66
2024/01/14 06:57:39;;;;;;;45.10;20.15;;;-0.30;71.80;;;;;;4996748;28;20053;-65
2024/01/14 07:00:05;;;;;;;41.60;19.70;;;-0.30;71.70;;;;;;4995551;28;20468;-67
2024/01/14 07:02:31;;;;;;;44.25;22.05;;;-0.30;71.70;;;;;;4995827;28;20031;-68
2024/01/14 07:04:57;;;;;;;42.83;20.25;;;-0.30;71.90;;;;;;4995894;28;20030;-67
2024/01/14 07:07:23;;;;;;;42.63;20.65;;;-0.40;71.70;;;;;;4995896;28;20034;-71
2024/01/14 07:09:49;;;;;;;44.72;21.38;;;-0.40;72.00;;;;;;4996517;28;20069;-64
2024/01/14 07:12:16;;;;;;;43.40;21.50;;;-0.40;71.90;;;;;;4996233;28;20034;-67
2024/01/14 07:14:42;;;;;;;47.00;21.05;;;-0.30;71.90;;;;;;4995943;28;20328;-70
2024/01/14 07:17:08;;;;;;;40.58;20.70;;;-0.40;71.80;;;;;;4995837;28;20452;-72
2024/01/14 07:19:37;;;;;;;47.45;22.92;;;-0.40;72.00;;;;;;4995877;28;20073;-71
2024/01/14 07:22:04;;;;;;;41.85;21.20;;;-0.30;72.00;;;;;;4996118;28;20061;-66
2024/01/14 07:24:30;;;;;;;47.58;21.38;;;-0.30;72.00;;;;;;4995778;28;20030;-66
2024/01/14 07:26:57;;;;;;;47.35;23.23;;;-0.20;71.90;;;;;;4995677;28;20026;-72
2024/01/14 07:29:23;;;;;;;46.10;21.98;;;-0.20;72.10;;;;;;4995389;28;20140;-66
2024/01/14 07:32:01;;;;;;;45.70;23.58;;;-0.20;72.20;;;;;;4995658;28;20062;-67
2024/01/14 07:34:28;;;;;;;45.58;22.45;;;-0.20;72.30;;;;;;4994038;28;20356;-68
2024/01/14 07:36:54;;;;;;;42.67;21.98;;;-0.20;72.30;;;;;;4993650;28;20117;-66
2024/01/14 07:39:20;;;;;;;53.28;24.70;;;-0.10;72.10;;;;;;4993874;28;20026;-66
2024/01/14 07:41:45;;;;;;;47.42;22.50;;;-0.10;72.30;;;;;;4993656;28;20037;-67
2024/01/14 07:44:12;;;;;;;43.20;21.95;;;-0.10;72.30;;;;;;4993729;28;20345;-69
2024/01/14 07:46:38;;;;;;;47.70;24.25;;;0.00;72.40;;;;;;4993952;28;20607;-68
2024/01/14 07:49:06;;;;;;;50.30;24.58;;;0.00;72.40;;;;;;4994493;28;20045;-70
2024/01/14 07:51:32;;;;;;;46.88;24.25;;;0.00;72.60;;;;;;4996136;28;20023;-68
2024/01/14 07:54:08;;;;;;;49.03;24.20;;;0.00;72.60;;;;;;4995600;28;20037;-69
2024/01/14 07:56:34;;;;;;;55.65;26.98;;;0.00;72.80;;;;;;4996043;28;20025;-65
2024/01/14 07:59:00;;;;;;;55.67;27.58;;;0.20;72.90;;;;;;4995506;28;20027;-68
2024/01/14 08:01:26;;;;;;;51.28;27.98;;;0.20;73.20;;;;;;4995485;28;20058;-66
2024/01/14 08:03:52;;;;;;;56.95;27.90;;;0.30;73.00;;;;;;4996045;28;20022;-69
2024/01/14 08:06:24;;;;;;;54.33;28.38;;;0.40;73.30;;;;;;4995386;28;20040;-67
2024/01/14 08:08:50;;;;;;;56.15;29.40;;;0.50;73.20;;;;;;4995458;28;20022;-69
2024/01/14 08:11:16;;;;;;;50.72;25.20;;;0.50;73.60;;;;;;4994529;28;20475;-66
2024/01/14 08:13:43;;;;;;;47.55;23.08;;;0.60;73.30;;;;;;4995401;28;20031;-72
2024/01/14 08:16:09;;;;;;;51.72;25.98;;;0.70;73.40;;;;;;4997865;28;20026;-70
2024/01/14 08:18:35;;;;;;;57.92;26.17;;;0.80;73.40;;;;;;4998965;28;20038;-70
2024/01/14 08:21:01;;;;;;;58.28;29.77;;;0.90;73.40;;;;;;4999090;28;20072;-70
2024/01/14 08:23:32;;;;;;;61.38;29.70;;;1.00;73.30;;;;;;4999288;28;20045;-68
2024/01/14 08:26:00;;;;;;;55.53;27.70;;;1.10;73.20;;;;;;4997943;28;20026;-71
2024/01/14 08:28:26;;;;;;;56.40;28.58;;;1.20;73.50;;;;;;4998904;28;20057;-66
2024/01/14 08:30:52;;;;;;;59.80;27.05;;;1.40;73.20;;;;;;4999175;28;20065;-66
2024/01/14 08:33:18;;;;;;;47.20;24.70;;;1.50;73.20;;;;;;4999393;28;20160;-68
2024/01/14 08:35:45;;;;;;;47.20;22.73;;;1.60;73.30;;;;;;4999368;28;20101;-66
2024/01/14 08:38:11;;;;;;;54.85;26.92;;;1.80;73.30;;;;;;4998653;28;20030;-68
2024/01/14 08:40:37;;;;;;;55.38;28.60;;;1.90;73.10;;;;;;4998960;28;20026;-70
2024/01/14 08:43:04;;;;;;;54.35;28.60;;;2.00;73.00;;;;;;4998756;28;20053;-65
2024/01/14 08:45:29;;;;;;;53.45;25.50;;;2.20;73.30;;;;;;4998552;28;20027;-71
2024/01/14 08:47:55;;;;;;;56.25;28.63;;;2.40;72.90;;;;;;4998948;28;20039;-72
2024/01/14 08:50:21;;;;;;;52.33;26.02;;;2.40;72.80;;;;;;4998556;28;20333;-71
2024/01/14 08:52:47;;;;;;;46.25;24.60;;;2.60;72.60;;;;;;4998969;28;20027;-70
2024/01/14 08:55:13;;;;;;;46.80;25.55;;;2.70;72.30;;;;;;4998447;28;20087;-68
2024/01/14 08:57:39;;;;;;;53.22;24.65;;;2.80;72.40;;;;;;4998353;28;20041;-71
2024/01/14 09:00:06;;;;;;;48.58;25.52;;;2.90;72.30;;;;;;4998333;28;20027;-68
2024/01/14 09:02:32;;;;;;;49.08;26.13;;;3.10;72.50;;;;;;4997376;28;20034;-72
2024/01/14 09:04:59;;;;;;;44.90;25.23;;;3.20;72.60;;;;;;4998559;28;20038;-70
2024/01/14 09:07:26;;;;;;;52.75;25.35;;;3.40;72.40;;;;;;4998310;28;20038;-67
2024/01/14 09:09:52;;;;;;;46.35;24.20;;;3.50;72.40;;;;;;4998451;28;20092;-70
2024/01/14 09:12:18;;;;;;;50.20;25.00;;;3.70;72.10;;;;;;4998656;28;20425;-71
2024/01/14 09:14:44;;;;;;;46.17;23.67;;;3.80;71.90;;;;;;4998350;28;20030;-68
2024/01/14 09:17:11;;;;;;;45.13;24.15;;;3.90;71.80;;;;;;4998279;28;20030;-72
2024/01/14 09:19:37;;;;;;;45.00;22.02;;;4.00;71.70;;;;;;4998227;28;20109;-68
2024/01/14 09:22:03;;;;;;;42.78;21.27;;;4.20;71.50;;;;;;4997078;28;20437;-69
2024/01/14 09:24:29;;;;;;;40.45;20.90;;;4.30;71.10;;;;;;4998156;28;20030;-65
2024/01/14 09:26:55;;;;;;;38.15;21.00;;;4.40;71.20;;;;;;4997642;28;20066;-68
2024/01/14 09:29:22;;;;;;;38.50;21.35;;;4.60;71.10;;;;;;4997654;28;20149;-66
2024/01/14 09:31:48;;;;;;;49.00;24.60;;;4.70;70.70;;;;;;4998030;28;20081;-69
2024/01/14 09:34:14;;;;;;;47.90;25.83;;;4.80;70.60;;;;;;4997761;28;20046;-67
2024/01/14 09:36:41;;;;;;;59.92;33.88;;;4.90;70.10;;;;;;4997628;28;20038;-66
2024/01/14 09:39:13;;;;;;;48.55;26.55;;;5.00;70.10;;;;;;4997821;28;20030;-71
2024/01/14 09:41:44;;;;;;;50.05;28.25;;;5.10;70.00;;;;;;4997861;28;20049;-69
2024/01/14 09:44:17;;;;;;;48.13;25.15;;;5.30;70.00;;;;;;4997517;28;20487;-66
2024/01/14 09:46:44;;;;;;;50.55;27.42;;;5.30;69.40;;;;;;4997740;28;20030;-65
2024/01/14 09:49:11;;;;;;;51.45;27.38;;;5.40;69.50;;;;;;4997927;28;20037;-71
2024/01/14 09:51:39;;;;;;;49.03;25.77;;;5.50;69.40;;;;;;4996412;28;20026;-69
2024/01/14 09:54:06;;;;;;;52.13;27.88;;;5.60;69.10;;;;;;4997323;28;20105;-69
2024/01/14 09:56:34;;;;;;;50.95;27.73;;;5.70;68.90;;;;;;4997821;28;20031;-71
2024/01/14 09:59:03;;;;;;;53.92;29.50;;;5.80;68.90;;;;;;4997111;28;20027;-69
2024/01/14 10:01:33;;;;;;;50.75;27.80;;;5.80;68.90;;;;;;4996255;28;20045;-68
2024/01/14 10:04:01;;;;;;;55.08;29.50;;;5.90;69.00;;;;;;4997657;28;20022;-67
2024/01/14 10:06:31;;;;;;;54.30;29.95;;;5.90;68.80;;;;;;4997211;28;20022;-68
2024/01/14 10:08:58;;;;;;;53.30;27.83;;;6.00;68.60;;;;;;4997065;28;20059;-65
2024/01/14 10:11:25;;;;;;;52.63;27.85;;;6.10;68.40;;;;;;4997455;28;20035;-67
2024/01/14 10:13:50;;;;;;;48.22;26.05;;;6.10;68.20;;;;;;4996943;28;20474;-68
2024/01/14 10:16:17;;;;;;;54.80;27.30;;;6.20;68.10;;;;;;4996894;28;20034;-67
2024/01/14 10:18:44;;;;;;;55.55;27.52;;;6.30;67.70;;;;;;4996802;28;20030;-70
2024/01/14 10:21:10;;;;;;;60.00;30.02;;;6.30;67.60;;;;;;4997077;28;20039;-70
2024/01/14 10:23:37;;;;;;;55.35;30.85;;;6.40;66.90;;;;;;4997026;28;20022;-68
2024/01/14 10:26:03;;;;;;;50.65;28.60;;;6.50;67.20;;;;;;4995616;28;20125;-64
2024/01/14 10:28:34;;;;;;;48.75;25.35;;;6.60;67.20;;;;;;4996452;28;20121;-70
2024/01/14 10:31:04;;;;;;;51.88;28.17;;;6.70;66.90;;;;;;4996651;28;20031;-71
2024/01/14 10:33:34;;;;;;;47.30;25.33;;;6.80;66.70;;;;;;4996875;28;20022;-70
2024/01/14 10:36:00;;;;;;;46.97;25.80;;;6.90;66.60;;;;;;4997046;28;20026;-67
2024/01/14 10:38:26;;;;;;;51.30;25.88;;;6.90;66.20;;;;;;4995767;28;20101;-68
2024/01/14 10:40:53;;;;;;;49.47;25.63;;;7.00;65.80;;;;;;4996425;28;20062;-69
2024/01/14 10:43:24;;;;;;;53.25;28.13;;;7.10;66.10;;;;;;4996433;28;20157;-69
2024/01/14 10:45:50;;;;;;;48.00;26.25;;;7.20;66.10;;;;;;4996328;28;20030;-65
2024/01/14 10:48:24;;;;;;;49.42;26.33;;;7.30;65.90;;;;;;4996163;28;20046;-65
2024/01/14 10:50:57;;;;;;;51.33;27.17;;;7.40;65.80;;;;;;4995338;28;20026;-67
2024/01/14 10:53:33;;;;;;;47.40;24.42;;;7.40;65.80;;;;;;4996183;28;20018;-64
2024/01/14 10:56:03;;;;;;;51.70;27.63;;;7.50;65.20;;;;;;4996697;28;20022;-64
2024/01/14 10:58:36;;;;;;;51.65;28.02;;;7.60;64.60;;;;;;4996273;28;20026;-68
2024/01/14 11:01:07;;;;;;;49.87;25.10;;;7.60;64.80;;;;;;4995207;28;20030;-69
2024/01/14 11:03:34;;;;;;;46.70;25.17;;;7.70;64.50;;;;;;4996378;28;20026;-65
2024/01/14 11:06:02;;;;;;;48.08;24.33;;;7.80;63.80;;;;;;4996509;28;20474;-64
2024/01/14 11:08:30;;;;;;;43.78;22.98;;;7.80;63.70;;;;;;4995971;28;20025;-62
2024/01/14 11:10:56;;;;;;;44.90;24.88;;;7.90;63.30;;;;;;4996001;28;20015;-68
2024/01/14 11:13:28;;;;;;;45.22;24.48;;;7.90;63.30;;;;;;4995928;28;20030;-68
2024/01/14 11:16:18;;;;;;;49.22;27.20;;;7.90;62.70;;;;;;4996253;28;20097;-67
2024/01/14 11:19:00;;;;;;;48.63;23.90;;;8.00;62.60;;;;;;4995587;28;20034;-66
2024/01/14 11:21:58;;;;;;;44.28;23.52;;;8.00;63.00;;;;;;4996463;28;20097;-67
2024/01/14 11:24:25;;;;;;;43.40;23.30;;;8.10;61.90;;;;;;4991655;28;20046;-69
2024/01/14 11:26:54;;;;;;;45.45;23.25;;;8.10;61.60;;;;;;4995733;28;20030;-66
2024/01/14 11:32:04;;;;;;;45.63;24.85;;;8.20;60.40;;;;;;5227853;23;20551;-64
2024/01/14 11:34:47;;;;;;;45.70;24.48;;;8.20;59.70;;;;;;4976374;28;20030;-69
2024/01/14 11:37:36;;;;;;;45.35;24.23;;;8.20;60.40;;;;;;4976379;28;20042;-67
2024/01/14 11:40:14;;;;;;;45.63;24.52;;;8.20;59.50;;;;;;4976324;28;20018;-67
2024/01/14 11:42:50;;;;;;;47.00;25.98;;;8.20;60.00;;;;;;4976157;28;20063;-65
2024/01/14 11:45:22;;;;;;;46.95;24.50;;;8.30;60.10;;;;;;4975322;28;20034;-65
2024/01/14 11:47:49;;;;;;;48.55;25.77;;;8.30;59.90;;;;;;4976200;28;20058;-68
2024/01/14 11:50:16;;;;;;;45.55;24.73;;;8.30;57.50;;;;;;4979160;28;20030;-69
2024/01/14 11:52:45;;;;;;;50.58;25.33;;;8.30;58.80;;;;;;4980376;28;20432;-65
2024/01/14 11:55:14;;;;;;;47.20;24.88;;;8.40;59.40;;;;;;4980311;28;20026;-64
2024/01/14 11:57:41;;;;;;;45.88;23.80;;;8.40;59.60;;;;;;4980328;28;20172;-66
2024/01/14 12:00:08;;;;;;;48.88;24.23;;;8.40;59.80;;;;;;4980236;28;20026;-64
2024/01/14 12:02:34;;;;;;;45.80;23.45;;;8.50;59.70;;;;;;4980404;28;20479;-63
2024/01/14 12:05:15;;;;;;;39.33;20.98;;;8.50;59.80;;;;;;4978927;28;20031;-67
2024/01/14 12:07:42;;;;;;;45.75;25.15;;;8.60;58.80;;;;;;4980288;28;20027;-67
2024/01/14 12:10:15;;;;;;;46.03;24.70;;;8.60;58.30;;;;;;4978820;28;20034;-65
2024/01/14 12:12:42;;;;;;;43.13;23.50;;;8.60;58.70;;;;;;4980301;28;20034;-69
2024/01/14 12:15:11;;;;;;;44.53;22.13;;;8.60;58.40;;;;;;4979753;28;20046;-64
2024/01/14 12:17:38;;;;;;;49.28;24.23;;;8.60;59.20;;;;;;4980201;28;20073;-67
2024/01/14 12:20:07;;;;;;;46.40;25.77;;;8.60;59.30;;;;;;4980166;28;20062;-67
2024/01/14 12:22:33;;;;;;;43.60;23.35;;;8.60;58.10;;;;;;4979539;28;20034;-69
2024/01/14 12:25:02;;;;;;;42.95;23.58;;;8.60;58.40;;;;;;4979593;28;20031;-68
2024/01/14 12:27:28;;;;;;;43.33;22.83;;;8.60;58.70;;;;;;4979636;28;20031;-65
2024/01/14 12:29:54;;;;;;;43.60;22.88;;;8.70;58.80;;;;;;4979495;28;20491;-68
2024/01/14 12:32:20;;;;;;;42.53;22.27;;;8.70;58.50;;;;;;4979145;28;20369;-66
2024/01/14 12:34:49;;;;;;;47.45;24.98;;;8.70;57.90;;;;;;4978384;28;20507;-64
2024/01/14 12:37:16;;;;;;;42.08;24.40;;;8.70;58.50;;;;;;4979591;28;20047;-67